createdAt,value
2018-08-25T00:02:20.318Z,1.80
2018-08-25T00:04:48.687Z,1.87
2018-08-25T00:07:17.006Z,1.70
2018-08-25T00:09:45.358Z,1.60
2018-08-25T00:12:14.122Z,1.50
2018-08-25T01:15:43.792Z,1.43
2018-08-25T01:18:12.137Z,1.50
2018-08-25T01:23:33.709Z,1.47
2018-08-25T01:26:02.001Z,1.57
2018-08-25T01:28:30.317Z,1.43
2018-08-25T01:30:59.857Z,1.60
2018-08-25T01:33:28.199Z,1.67
2018-08-25T01:35:56.541Z,1.83
2018-08-25T01:38:24.866Z,1.50
2018-08-25T01:40:53.262Z,2.00
2018-08-25T01:43:21.629Z,1.40
2018-08-25T01:45:49.949Z,2.00
2018-08-25T01:48:18.282Z,2.00
2018-08-25T01:50:46.660Z,1.40
2018-08-25T01:53:15.013Z,1.60
2018-08-25T01:55:43.374Z,1.70
2018-08-25T01:58:11.680Z,1.53
2018-08-25T02:00:40.029Z,1.70
2018-08-25T02:03:08.311Z,1.80
2018-08-25T02:05:36.605Z,1.40
2018-08-25T02:08:05.689Z,1.47
2018-08-25T02:10:33.994Z,1.77
2018-08-25T02:13:02.290Z,1.60
2018-08-25T02:21:17.101Z,1.67
2018-08-25T05:19:19.011Z,2.43
2018-08-25T05:21:59.598Z,2.80
2018-08-25T05:27:20.976Z,2.60
2018-08-25T05:29:49.298Z,2.60
2018-08-25T05:32:17.621Z,2.40
2018-08-25T05:34:45.946Z,2.87
2018-08-25T05:37:14.253Z,2.63
2018-08-25T05:39:42.579Z,2.40
2018-08-25T05:42:10.853Z,2.80
2018-08-25T05:44:39.164Z,2.23
2018-08-25T05:47:07.528Z,2.40
2018-08-25T05:49:35.954Z,2.47
2018-08-25T05:52:04.433Z,2.60
2018-08-25T05:54:32.823Z,2.73
2018-08-25T05:57:01.104Z,2.67
2018-08-25T05:59:29.673Z,2.60
2018-08-25T06:01:57.957Z,2.50
2018-08-25T06:04:26.203Z,2.23
2018-08-25T06:06:54.496Z,2.23
2018-08-25T06:09:22.765Z,2.60
2018-08-25T06:11:51.031Z,2.50
2018-08-25T06:14:19.297Z,2.57
2018-08-25T06:22:37.085Z,2.50
2018-08-25T06:27:58.208Z,2.70
2018-08-25T06:30:26.514Z,2.10
2018-08-25T06:32:54.818Z,2.70
2018-08-25T06:35:23.141Z,2.47
2018-08-25T06:37:51.473Z,2.53
2018-08-25T06:40:19.761Z,2.40
2018-08-25T06:42:48.097Z,2.43
2018-08-25T06:45:16.407Z,2.60
2018-08-25T06:47:44.733Z,2.80
2018-08-25T06:50:14.573Z,2.40
2018-08-25T06:52:42.949Z,2.30
2018-08-25T06:55:11.257Z,2.40
2018-08-25T06:57:39.587Z,2.30
2018-08-25T07:00:08.233Z,2.30
2018-08-25T07:02:36.658Z,2.53
2018-08-25T07:05:05.073Z,2.20
2018-08-25T07:07:33.404Z,2.27
2018-08-25T07:10:01.705Z,2.43
2018-08-25T07:12:30.020Z,2.30
2018-08-25T07:34:26.391Z,2.10
2018-08-25T07:36:58.705Z,2.20
2018-08-25T07:39:34.165Z,2.50
2018-08-25T07:44:47.577Z,1.90
2018-08-25T07:47:28.231Z,2.07
2018-08-25T07:50:06.907Z,1.97
2018-08-25T07:52:42.450Z,1.90
2018-08-25T07:55:17.468Z,2.20
2018-08-25T08:00:29.327Z,2.00
2018-08-25T08:03:05.349Z,2.20
2018-08-25T08:05:43.082Z,2.33
2018-08-25T08:10:56.326Z,1.83
2018-08-25T08:29:28.154Z,1.80
2018-08-25T08:34:40.721Z,1.87
2018-08-25T08:39:52.341Z,1.70
2018-08-25T08:42:28.426Z,1.97
2018-08-25T08:45:03.970Z,1.60
2018-08-25T08:47:40.209Z,1.90
2018-08-25T08:52:51.840Z,1.77
2018-08-25T08:55:27.849Z,1.90
2018-08-25T09:00:40.810Z,1.90
2018-08-25T09:05:52.955Z,2.10
2018-08-25T09:22:37.359Z,2.73
2018-08-25T09:25:05.700Z,1.97
2018-08-25T09:27:34.163Z,1.77
2018-08-25T09:30:02.441Z,2.00
2018-08-25T09:32:30.771Z,2.13
2018-08-25T09:34:59.198Z,2.10
2018-08-25T09:37:27.537Z,2.33
2018-08-25T09:39:55.900Z,1.80
2018-08-25T09:42:24.248Z,1.60
2018-08-25T09:44:52.539Z,1.90
2018-08-25T09:47:20.848Z,2.10
2018-08-25T09:49:49.157Z,2.20
2018-08-25T09:52:17.657Z,1.83
2018-08-25T09:54:45.953Z,2.07
2018-08-25T09:57:14.220Z,1.80
2018-08-25T09:59:42.476Z,1.70
2018-08-25T10:02:10.745Z,1.70
2018-08-25T10:04:39.008Z,1.80
2018-08-25T10:07:07.301Z,1.80
2018-08-25T10:09:35.577Z,2.03
2018-08-25T10:12:03.877Z,1.93
2018-08-25T10:17:25.310Z,2.00
2018-08-25T10:28:45.911Z,1.60
2018-08-25T10:31:18.863Z,1.90
2018-08-25T10:33:48.081Z,1.90
2018-08-25T10:36:16.512Z,1.90
2018-08-25T10:38:44.901Z,1.60
2018-08-25T10:41:13.223Z,1.83
2018-08-25T10:43:41.529Z,1.70
2018-08-25T10:46:09.821Z,1.80
2018-08-25T10:48:38.097Z,1.90
2018-08-25T10:51:06.428Z,1.77
2018-08-25T10:53:34.744Z,1.90
2018-08-25T10:56:03.047Z,1.90
2018-08-25T10:58:31.374Z,1.80
2018-08-25T11:00:59.854Z,1.87
2018-08-25T11:03:28.015Z,2.07
2018-08-25T11:05:56.309Z,2.10
2018-08-25T11:08:24.609Z,1.87
2018-08-25T11:10:52.909Z,1.67
2018-08-25T11:16:14.109Z,1.63
2018-08-25T11:21:35.617Z,2.00
2018-08-25T12:13:14.128Z,2.87
2018-08-25T12:23:39.667Z,3.60
2018-08-25T12:26:18.438Z,3.70
2018-08-25T12:28:53.589Z,2.57
2018-08-25T12:34:09.139Z,3.07
2018-08-25T12:44:34.255Z,2.40
2018-08-25T12:49:49.954Z,2.50
2018-08-25T12:55:04.656Z,2.30
2018-08-25T13:00:19.229Z,2.20
2018-08-25T13:02:55.638Z,2.10
2018-08-25T13:13:22.745Z,1.60
2018-08-25T13:15:58.594Z,1.70
2018-08-25T13:18:36.162Z,1.80
2018-08-25T13:23:48.552Z,1.80
2018-08-25T13:26:24.606Z,1.63
2018-08-25T13:31:40.490Z,2.10
2018-08-25T13:34:15.997Z,2.10
2018-08-25T13:36:47.653Z,2.00
2018-08-25T13:39:17.257Z,2.10
2018-08-25T13:41:46.165Z,1.60
2018-08-25T13:44:14.669Z,1.83
2018-08-25T13:46:45.408Z,1.53
2018-08-25T13:49:14.572Z,1.70
2018-08-25T13:51:42.913Z,1.80
2018-08-25T13:54:11.758Z,1.77
2018-08-25T13:56:40.138Z,1.70
2018-08-25T13:59:08.497Z,2.00
2018-08-25T14:01:36.827Z,1.60
2018-08-25T14:04:05.126Z,1.70
2018-08-25T14:06:33.465Z,1.77
2018-08-25T14:09:01.803Z,1.63
2018-08-25T14:11:30.142Z,1.70
2018-08-25T15:17:45.270Z,0.80
2018-08-25T15:20:14.117Z,1.00
2018-08-25T15:22:42.688Z,0.90
2018-08-25T15:25:17.441Z,1.00
2018-08-25T16:19:37.994Z,0.70
2018-08-25T16:22:06.710Z,1.00
2018-08-25T16:24:35.084Z,0.93
2018-08-25T16:27:03.596Z,1.00
2018-08-25T16:29:32.289Z,1.37
2018-08-25T16:32:00.711Z,1.00
2018-08-25T16:34:29.134Z,1.00
2018-08-25T16:36:58.479Z,2.87
2018-08-25T16:39:28.128Z,1.17
2018-08-25T16:41:58.301Z,0.90
2018-08-25T16:44:28.558Z,0.90
2018-08-25T16:47:01.499Z,0.70
2018-08-25T16:49:32.647Z,0.80
2018-08-25T16:52:06.082Z,0.83
2018-08-25T16:54:43.696Z,0.90
2018-08-25T16:57:16.233Z,0.97
2018-08-25T16:59:47.187Z,1.10
2018-08-25T17:02:17.007Z,0.90
2018-08-25T17:04:49.747Z,1.20
2018-08-25T17:07:24.260Z,1.30
2018-08-25T17:09:59.021Z,1.63
2018-08-25T17:12:37.381Z,1.60
2018-08-25T17:27:00.478Z,1.30
2018-08-25T17:29:45.050Z,1.00
2018-08-25T17:35:17.537Z,1.30
2018-08-25T17:43:42.076Z,1.40
2018-08-25T17:46:10.385Z,1.40
2018-08-25T17:48:38.769Z,1.23
2018-08-25T17:51:07.135Z,1.20
2018-08-25T17:53:35.391Z,1.60
2018-08-25T17:56:03.692Z,1.40
2018-08-25T17:58:31.981Z,1.30
2018-08-25T18:01:00.311Z,1.50
2018-08-25T18:03:28.595Z,1.53
2018-08-25T18:05:56.920Z,1.40
2018-08-25T18:08:25.217Z,1.23
2018-08-25T18:10:53.542Z,1.40
2018-08-25T18:16:14.409Z,1.30
2018-08-25T18:18:42.795Z,1.30
2018-08-25T20:13:32.686Z,2.73
2018-08-25T20:16:00.960Z,2.90
2018-08-25T20:18:30.144Z,2.63
2018-08-25T20:20:58.514Z,2.63
2018-08-25T20:23:26.856Z,2.47
2018-08-25T20:25:55.142Z,2.70
2018-08-25T20:28:23.468Z,2.00
2018-08-25T20:30:51.859Z,2.17
2018-08-25T20:33:20.226Z,2.10
2018-08-25T20:35:48.646Z,2.20
2018-08-25T20:38:16.960Z,1.93
2018-08-25T20:40:45.245Z,1.80
2018-08-25T20:43:13.541Z,1.80
2018-08-25T20:45:41.946Z,1.60
2018-08-25T20:48:10.114Z,1.80
2018-08-25T20:50:38.385Z,2.03
2018-08-25T20:53:06.653Z,1.77
2018-08-25T20:55:34.957Z,2.00
2018-08-25T20:58:03.254Z,2.00
2018-08-25T21:00:31.530Z,2.17
2018-08-25T21:02:59.814Z,2.00
2018-08-25T21:05:28.065Z,2.20
2018-08-25T21:07:56.368Z,1.70
2018-08-25T21:10:24.649Z,1.93
2018-08-25T21:12:52.906Z,2.03
2018-08-25T21:15:22.476Z,1.80
2018-08-25T21:17:50.818Z,1.63
